createdAt,value
2022-12-27T00:00:44.824Z,2.39
2022-12-27T00:02:46.570Z,2.51
2022-12-27T00:04:48.320Z,2.51
2022-12-27T00:06:49.920Z,2.60
2022-12-27T00:08:52.139Z,2.65
2022-12-27T00:10:53.720Z,2.58
2022-12-27T00:12:55.463Z,2.35
2022-12-27T00:14:57.053Z,2.24
2022-12-27T00:16:59.065Z,2.17
2022-12-27T00:19:00.648Z,2.17
2022-12-27T00:21:04.189Z,2.34
2022-12-27T00:23:06.712Z,2.47
2022-12-27T00:25:09.136Z,2.44
2022-12-27T00:27:10.909Z,2.42
2022-12-27T00:29:15.142Z,2.48
2022-12-27T00:31:18.645Z,2.42
2022-12-27T00:33:20.413Z,2.35
2022-12-27T00:35:22.101Z,2.32
2022-12-27T00:37:23.783Z,2.32
2022-12-27T00:39:25.366Z,2.29
2022-12-27T00:41:27.719Z,2.22
2022-12-27T00:43:29.751Z,2.28
2022-12-27T00:45:31.330Z,2.30
2022-12-27T00:47:32.907Z,2.22
2022-12-27T00:49:34.872Z,2.28
2022-12-27T00:51:36.816Z,2.32
2022-12-27T00:53:38.441Z,2.23
2022-12-27T00:55:45.037Z,2.16
2022-12-27T00:57:46.918Z,2.11
2022-12-27T00:59:48.528Z,2.12
2022-12-27T01:01:50.335Z,2.18
2022-12-27T01:03:52.752Z,2.20
2022-12-27T01:05:54.571Z,2.21
2022-12-27T01:07:56.144Z,2.13
2022-12-27T01:09:57.768Z,2.05
2022-12-27T01:11:59.368Z,2.00
2022-12-27T01:14:04.054Z,2.07
2022-12-27T01:16:11.322Z,2.04
2022-12-27T01:18:13.078Z,2.11
2022-12-27T01:20:16.014Z,2.07
2022-12-27T01:22:17.750Z,2.08
2022-12-27T01:24:19.547Z,2.03
2022-12-27T01:26:22.904Z,2.04
2022-12-27T01:28:24.437Z,2.04
2022-12-27T01:30:26.445Z,2.06
2022-12-27T01:32:28.622Z,2.07
2022-12-27T01:34:30.240Z,2.09
2022-12-27T01:36:31.779Z,2.05
2022-12-27T01:38:33.321Z,1.97
2022-12-27T01:40:36.563Z,2.02
2022-12-27T01:42:53.616Z,2.04
2022-12-27T01:44:57.544Z,1.94
2022-12-27T01:47:00.454Z,1.86
2022-12-27T01:49:05.105Z,1.86
2022-12-27T01:51:08.312Z,1.89
2022-12-27T01:53:21.208Z,1.83
2022-12-27T01:55:32.191Z,1.78
2022-12-27T01:57:34.561Z,1.72
2022-12-27T01:59:36.983Z,1.80
2022-12-27T02:01:45.707Z,1.79
2022-12-27T02:03:55.893Z,1.84
2022-12-27T02:06:01.218Z,1.91
2022-12-27T02:08:07.547Z,1.86
2022-12-27T02:10:09.138Z,1.97
2022-12-27T02:12:11.452Z,2.06
2022-12-27T02:14:16.253Z,2.13
2022-12-27T02:16:19.937Z,2.02
2022-12-27T02:18:21.525Z,1.96
2022-12-27T02:20:25.537Z,1.99
2022-12-27T02:23:16.163Z,1.91
2022-12-27T02:25:55.070Z,2.02
2022-12-27T02:28:13.774Z,1.97
2022-12-27T02:30:15.724Z,1.91
2022-12-27T02:32:34.220Z,1.81
2022-12-27T02:35:11.768Z,1.91
2022-12-27T02:37:13.944Z,1.86
2022-12-27T02:39:18.176Z,1.83
2022-12-27T02:41:38.870Z,1.85
2022-12-27T02:43:59.065Z,1.87
2022-12-27T02:46:29.014Z,1.88
2022-12-27T02:48:49.436Z,1.89
2022-12-27T02:51:28.802Z,2.02
2022-12-27T02:53:40.993Z,1.95
2022-12-27T02:56:13.167Z,1.94
2022-12-27T02:58:35.833Z,1.91
2022-12-27T03:01:08.735Z,1.80
2022-12-27T03:03:39.638Z,1.79
2022-12-27T03:06:36.189Z,1.94
2022-12-27T03:08:51.697Z,1.88
2022-12-27T03:11:17.680Z,1.89
2022-12-27T03:13:47.149Z,1.96
2022-12-27T03:16:00.828Z,1.97
2022-12-27T03:18:10.555Z,2.00
2022-12-27T03:20:36.802Z,1.97
2022-12-27T03:22:58.600Z,1.96
2022-12-27T03:25:22.045Z,1.91
2022-12-27T03:27:29.372Z,1.94
2022-12-27T03:29:50.134Z,1.86
2022-12-27T03:32:14.160Z,1.95
2022-12-27T03:34:39.741Z,2.03
2022-12-27T03:37:02.375Z,2.04
2022-12-27T03:39:16.338Z,2.01
2022-12-27T03:41:44.630Z,1.95
2022-12-27T03:43:46.286Z,2.02
2022-12-27T03:46:31.435Z,2.08
2022-12-27T03:48:45.172Z,2.17
2022-12-27T03:50:54.497Z,2.09
2022-12-27T03:53:02.659Z,2.17
2022-12-27T03:55:05.918Z,2.15
2022-12-27T03:57:11.540Z,2.20
2022-12-27T03:59:13.261Z,2.20
2022-12-27T04:01:14.957Z,2.18
2022-12-27T04:03:16.676Z,2.16
2022-12-27T04:05:18.739Z,2.12
2022-12-27T04:07:20.309Z,2.08
2022-12-27T04:09:42.136Z,2.05
2022-12-27T04:12:02.262Z,1.79
2022-12-27T04:14:22.532Z,1.92
2022-12-27T04:16:42.861Z,2.02
2022-12-27T04:19:04.887Z,2.01
2022-12-27T04:21:24.977Z,1.99
2022-12-27T04:23:45.481Z,1.93
2022-12-27T04:26:05.499Z,1.96
2022-12-27T04:28:25.669Z,2.04
2022-12-27T04:30:45.685Z,2.02
2022-12-27T04:33:06.031Z,2.05
2022-12-27T04:35:08.191Z,2.12
2022-12-27T04:37:15.931Z,2.16
2022-12-27T04:39:17.579Z,2.22
2022-12-27T04:41:38.150Z,2.22
2022-12-27T04:43:58.721Z,2.33
2022-12-27T04:46:19.095Z,2.36
2022-12-27T04:48:39.374Z,2.30
2022-12-27T04:51:00.037Z,2.35
2022-12-27T04:53:20.499Z,2.30
2022-12-27T04:55:24.726Z,2.31
2022-12-27T04:57:27.742Z,2.31
2022-12-27T04:59:48.054Z,2.40
2022-12-27T05:02:05.789Z,2.30
2022-12-27T05:04:08.600Z,2.50
2022-12-27T05:06:10.591Z,2.44
2022-12-27T05:08:33.053Z,2.47
2022-12-27T05:10:54.001Z,2.38
2022-12-27T05:13:14.334Z,2.39
2022-12-27T05:15:16.206Z,2.45
2022-12-27T05:17:17.719Z,2.39
2022-12-27T05:19:19.355Z,2.38
2022-12-27T05:21:21.496Z,2.41
2022-12-27T05:24:03.509Z,2.49
2022-12-27T05:26:07.141Z,2.63
2022-12-27T05:28:11.766Z,2.59
2022-12-27T05:30:13.313Z,2.66
2022-12-27T05:32:15.209Z,2.60
2022-12-27T05:34:16.748Z,2.64
2022-12-27T05:36:19.522Z,2.60
2022-12-27T05:38:21.122Z,2.69
2022-12-27T05:40:24.343Z,2.79
2022-12-27T05:42:25.962Z,2.78
2022-12-27T05:44:27.644Z,2.78
2022-12-27T05:46:29.342Z,2.72
2022-12-27T05:48:31.309Z,2.52
2022-12-27T05:50:33.187Z,2.60
2022-12-27T05:52:47.304Z,2.66
2022-12-27T05:54:48.856Z,2.61
2022-12-27T05:56:50.402Z,2.69
2022-12-27T05:58:55.071Z,2.71
2022-12-27T06:00:57.469Z,2.73
2022-12-27T06:02:59.108Z,2.72
2022-12-27T06:05:00.727Z,2.76
2022-12-27T06:07:02.290Z,2.76
2022-12-27T06:09:04.060Z,2.77
2022-12-27T06:11:15.721Z,2.68
2022-12-27T06:13:17.393Z,2.72
2022-12-27T06:15:18.949Z,2.78
2022-12-27T06:17:20.516Z,2.75
2022-12-27T06:19:22.084Z,2.72
2022-12-27T06:21:23.613Z,2.72
2022-12-27T06:23:25.204Z,2.75
2022-12-27T06:25:26.820Z,2.70
2022-12-27T06:27:28.388Z,2.85
2022-12-27T06:29:30.005Z,2.75
2022-12-27T06:31:31.558Z,2.67
2022-12-27T06:33:33.445Z,2.70
2022-12-27T06:35:35.092Z,2.74
2022-12-27T06:37:36.792Z,2.69
2022-12-27T06:39:38.350Z,2.67
2022-12-27T06:41:39.872Z,2.73
2022-12-27T06:43:41.759Z,2.69
2022-12-27T06:45:43.349Z,2.60
2022-12-27T06:47:45.069Z,2.60
2022-12-27T06:49:46.783Z,2.66
2022-12-27T06:51:52.532Z,2.69
2022-12-27T06:53:57.595Z,2.72
2022-12-27T06:56:07.377Z,2.69
2022-12-27T06:58:09.358Z,2.62
2022-12-27T07:00:13.354Z,2.67
2022-12-27T07:02:15.241Z,2.73
2022-12-27T07:04:16.877Z,2.67
2022-12-27T07:06:19.065Z,2.69
2022-12-27T07:08:20.647Z,2.68
2022-12-27T07:10:22.192Z,2.76
2022-12-27T07:12:23.707Z,2.83
2022-12-27T07:14:25.340Z,2.77
2022-12-27T07:16:28.713Z,2.70
2022-12-27T07:18:30.462Z,2.68
2022-12-27T07:20:31.999Z,2.70
2022-12-27T07:22:34.245Z,2.72
2022-12-27T07:24:35.826Z,2.77
2022-12-27T07:26:37.576Z,2.84
2022-12-27T07:28:39.457Z,2.79
2022-12-27T07:30:42.049Z,2.86
2022-12-27T07:32:43.571Z,2.80
2022-12-27T07:34:45.079Z,2.77
2022-12-27T07:36:46.676Z,2.92
2022-12-27T07:38:48.282Z,2.92
2022-12-27T07:40:49.885Z,2.95
2022-12-27T07:42:51.510Z,2.86
2022-12-27T07:44:53.075Z,2.99
2022-12-27T07:46:54.676Z,2.96
2022-12-27T07:48:58.003Z,2.93
2022-12-27T07:50:59.825Z,2.85
2022-12-27T07:53:02.022Z,2.84
2022-12-27T07:55:03.809Z,2.84
2022-12-27T07:57:05.393Z,2.82
2022-12-27T07:59:12.536Z,2.80
2022-12-27T08:01:15.751Z,2.73
2022-12-27T08:03:18.193Z,2.62
2022-12-27T08:05:25.924Z,2.71
2022-12-27T08:07:29.411Z,2.77
2022-12-27T08:09:36.718Z,2.73
2022-12-27T08:11:39.705Z,2.77
2022-12-27T08:13:41.312Z,2.87
2022-12-27T08:15:43.766Z,2.83
2022-12-27T08:17:46.066Z,2.88
2022-12-27T08:19:50.492Z,2.96
2022-12-27T08:21:52.208Z,2.99
2022-12-27T08:23:53.736Z,2.99
2022-12-27T08:25:55.874Z,2.93
2022-12-27T08:28:10.099Z,2.82
2022-12-27T08:30:12.393Z,2.88
2022-12-27T08:32:15.054Z,2.94
2022-12-27T08:34:17.091Z,2.95
2022-12-27T08:38:40.972Z,2.89
2022-12-27T08:40:45.439Z,3.04
2022-12-27T08:42:47.340Z,3.06
2022-12-27T08:44:49.062Z,3.08
2022-12-27T08:46:50.827Z,3.16
2022-12-27T08:48:52.591Z,3.19
2022-12-27T08:50:55.659Z,3.26
2022-12-27T08:52:59.118Z,3.29
2022-12-27T08:55:02.056Z,3.29
2022-12-27T08:57:03.820Z,3.15
2022-12-27T08:59:05.439Z,3.29
2022-12-27T09:01:08.656Z,3.42
2022-12-27T09:03:10.749Z,3.58
2022-12-27T09:05:12.289Z,3.61
2022-12-27T09:07:13.976Z,3.65
2022-12-27T09:09:16.770Z,3.60
2022-12-27T09:11:24.824Z,3.74
2022-12-27T09:13:26.494Z,3.65
2022-12-27T09:15:28.065Z,3.59
2022-12-27T09:17:29.613Z,3.60
2022-12-27T09:19:31.144Z,3.39
2022-12-27T09:21:33.922Z,3.57
2022-12-27T09:23:36.854Z,3.59
2022-12-27T09:25:38.439Z,3.59
2022-12-27T09:27:40.030Z,3.38
2022-12-27T09:29:47.974Z,3.43
2022-12-27T09:31:49.987Z,3.35
2022-12-27T09:33:52.295Z,3.40
2022-12-27T09:35:54.171Z,3.49
2022-12-27T09:37:57.085Z,3.56
2022-12-27T09:39:58.718Z,3.51
2022-12-27T09:44:36.480Z,3.49
2022-12-27T09:46:56.464Z,3.39
2022-12-27T09:48:58.418Z,3.56
2022-12-27T09:51:08.236Z,3.57
2022-12-27T09:53:21.697Z,3.52
2022-12-27T09:55:42.955Z,3.54
2022-12-27T09:57:46.459Z,3.50
2022-12-27T09:59:52.843Z,3.54
2022-12-27T10:01:54.692Z,3.55
2022-12-27T10:03:57.026Z,3.38
2022-12-27T10:06:27.333Z,3.45
2022-12-27T10:08:39.108Z,3.50
2022-12-27T10:10:46.891Z,3.57
2022-12-27T10:13:10.873Z,3.52
2022-12-27T10:15:36.240Z,3.37
2022-12-27T10:18:19.211Z,3.48
2022-12-27T10:20:27.067Z,3.47
2022-12-27T10:22:41.034Z,3.36
2022-12-27T10:24:50.581Z,3.29
2022-12-27T10:26:55.007Z,3.30
2022-12-27T10:29:02.110Z,3.36
2022-12-27T10:31:04.998Z,3.30
2022-12-27T10:33:18.543Z,3.34
2022-12-27T10:35:21.304Z,3.42
2022-12-27T10:37:23.065Z,3.55
2022-12-27T10:39:29.315Z,3.63
2022-12-27T10:41:52.620Z,3.72
2022-12-27T10:43:55.081Z,3.90
2022-12-27T10:46:12.597Z,3.81
2022-12-27T10:48:28.910Z,3.95
2022-12-27T10:50:33.816Z,3.88
2022-12-27T10:52:35.742Z,3.88
2022-12-27T10:54:53.268Z,3.71
2022-12-27T10:56:56.241Z,3.74
2022-12-27T10:59:19.800Z,3.66
2022-12-27T11:01:30.059Z,3.79
2022-12-27T11:03:32.663Z,3.84
2022-12-27T11:05:35.792Z,3.83
2022-12-27T11:07:37.672Z,3.96
2022-12-27T11:09:50.682Z,4.05
2022-12-27T11:12:10.780Z,4.20
2022-12-27T11:14:18.091Z,4.20
2022-12-27T11:16:29.076Z,4.01
2022-12-27T11:18:34.950Z,4.09
2022-12-27T11:20:46.421Z,4.01
2022-12-27T11:22:53.723Z,3.93
2022-12-27T11:25:00.487Z,4.01
2022-12-27T11:27:03.673Z,3.98
2022-12-27T11:29:06.026Z,3.96
2022-12-27T11:31:14.089Z,3.80
2022-12-27T11:33:24.709Z,3.80
2022-12-27T11:35:27.010Z,3.77
2022-12-27T11:37:28.656Z,3.79
2022-12-27T11:39:40.464Z,3.87
2022-12-27T11:41:47.192Z,3.97
2022-12-27T11:43:55.713Z,3.99
2022-12-27T11:45:58.601Z,4.06
2022-12-27T11:48:07.394Z,4.01
2022-12-27T11:50:12.179Z,3.93
2022-12-27T11:52:36.801Z,4.04
2022-12-27T11:55:23.667Z,3.89
2022-12-27T11:57:37.224Z,3.76
2022-12-27T11:59:56.383Z,3.83
2022-12-27T12:02:13.796Z,3.86
2022-12-27T12:04:40.307Z,3.57
2022-12-27T12:07:15.462Z,3.73
2022-12-27T12:09:44.799Z,3.88
2022-12-27T12:12:02.761Z,3.79
2022-12-27T12:14:35.212Z,3.76
2022-12-27T12:17:08.011Z,3.66
2022-12-27T12:19:52.529Z,3.78
2022-12-27T12:22:03.052Z,3.84
2022-12-27T12:24:14.743Z,3.98
2022-12-27T12:26:20.396Z,4.02
2022-12-27T12:28:57.589Z,3.90
2022-12-27T12:31:29.579Z,3.87
2022-12-27T12:33:37.830Z,3.90
2022-12-27T12:36:15.983Z,3.81
2022-12-27T12:38:23.089Z,3.75
2022-12-27T12:40:57.193Z,3.78
2022-12-27T12:43:07.289Z,3.87
2022-12-27T12:45:17.874Z,3.85
2022-12-27T12:47:28.809Z,3.69
2022-12-27T12:50:07.934Z,3.73
2022-12-27T12:52:41.105Z,3.64
2022-12-27T12:55:07.395Z,3.62
2022-12-27T12:57:34.764Z,3.74
2022-12-27T13:00:02.336Z,3.74
2022-12-27T13:02:31.224Z,3.69
2022-12-27T13:04:42.918Z,3.62
2022-12-27T13:07:03.401Z,3.71
2022-12-27T13:09:29.901Z,3.78
2022-12-27T13:11:45.808Z,3.69
2022-12-27T13:14:27.294Z,3.67
2022-12-27T13:17:12.916Z,3.69
2022-12-27T13:19:17.803Z,3.74
2022-12-27T13:21:52.328Z,3.82
2022-12-27T13:24:00.207Z,3.92
2022-12-27T13:26:24.987Z,3.93
2022-12-27T13:28:57.730Z,3.86
2022-12-27T13:31:19.804Z,3.95
2022-12-27T13:33:51.063Z,4.03
2022-12-27T13:36:16.748Z,3.99
2022-12-27T13:38:26.989Z,4.10
2022-12-27T13:40:34.827Z,3.93
2022-12-27T13:43:00.818Z,3.84
2022-12-27T13:45:21.818Z,3.72
2022-12-27T13:48:01.019Z,3.69
2022-12-27T13:50:25.073Z,3.61
2022-12-27T13:52:59.482Z,3.55
2022-12-27T13:55:16.372Z,3.70
2022-12-27T13:57:37.117Z,3.77
2022-12-27T13:59:59.987Z,3.79
2022-12-27T14:02:38.853Z,3.79
2022-12-27T14:04:59.749Z,3.63
2022-12-27T14:07:13.984Z,3.74
2022-12-27T14:09:24.527Z,3.85
2022-12-27T14:12:13.339Z,3.90
2022-12-27T14:14:18.306Z,3.83
2022-12-27T14:16:38.023Z,3.98
2022-12-27T14:19:24.158Z,3.93
2022-12-27T14:21:47.130Z,3.97
2022-12-27T14:24:00.831Z,3.97
2022-12-27T14:26:21.553Z,4.00
2022-12-27T14:28:47.316Z,3.98
2022-12-27T14:31:16.911Z,4.07
2022-12-27T14:33:37.965Z,4.10
2022-12-27T14:36:06.531Z,4.15
2022-12-27T14:38:37.534Z,4.04
2022-12-27T14:41:18.806Z,4.21
2022-12-27T14:43:35.572Z,4.35
2022-12-27T14:45:40.019Z,4.44
2022-12-27T14:47:56.559Z,4.41
2022-12-27T14:50:43.012Z,4.31
2022-12-27T14:53:10.882Z,4.25
2022-12-27T14:55:40.381Z,4.25
2022-12-27T14:57:58.808Z,4.26
2022-12-27T15:00:16.401Z,4.32
2022-12-27T15:02:56.641Z,4.24
2022-12-27T15:05:28.653Z,4.30
2022-12-27T15:07:51.433Z,4.15
2022-12-27T15:10:08.795Z,4.08
2022-12-27T15:12:42.501Z,4.01
2022-12-27T15:15:08.744Z,4.01
2022-12-27T15:17:21.953Z,4.05
2022-12-27T15:19:35.482Z,3.94
2022-12-27T15:21:52.108Z,4.08
2022-12-27T15:24:02.818Z,4.04
2022-12-27T15:26:20.578Z,4.03
2022-12-27T15:28:40.341Z,4.02
2022-12-27T15:31:04.986Z,4.03
2022-12-27T15:33:28.527Z,4.90
2022-12-27T15:35:40.858Z,4.50
2022-12-27T15:38:01.105Z,4.25
2022-12-27T15:40:24.687Z,4.15
2022-12-27T15:42:48.813Z,4.10
2022-12-27T15:45:24.484Z,3.84
2022-12-27T15:47:53.909Z,3.85
2022-12-27T15:50:15.676Z,3.66
2022-12-27T15:52:35.355Z,3.59
2022-12-27T15:54:58.875Z,3.52
2022-12-27T15:57:18.696Z,3.55
2022-12-27T15:59:45.638Z,3.45
2022-12-27T16:01:47.476Z,3.33
2022-12-27T16:03:50.782Z,3.38
2022-12-27T16:05:54.100Z,3.34
2022-12-27T16:07:58.938Z,3.31
2022-12-27T16:10:29.397Z,3.29
2022-12-27T16:12:37.207Z,3.17
2022-12-27T16:14:41.116Z,3.08
2022-12-27T16:16:53.767Z,3.12
2022-12-27T16:18:58.392Z,3.08
2022-12-27T16:21:01.588Z,3.06
2022-12-27T16:23:06.768Z,2.92
2022-12-27T16:25:31.429Z,2.75
2022-12-27T16:27:33.385Z,2.70
2022-12-27T16:29:36.898Z,3.69
2022-12-27T16:31:45.693Z,3.97
2022-12-27T16:33:49.088Z,4.44
2022-12-27T16:36:05.672Z,5.13
2022-12-27T16:38:21.822Z,5.78
2022-12-27T16:40:26.437Z,6.22
2022-12-27T16:42:47.763Z,6.72
2022-12-27T16:45:15.979Z,7.17
2022-12-27T16:47:31.560Z,7.43
2022-12-27T16:49:55.270Z,7.83
2022-12-27T16:52:20.814Z,8.15
2022-12-27T16:54:25.326Z,8.23
2022-12-27T16:56:30.419Z,8.02
2022-12-27T16:58:38.828Z,7.70
2022-12-27T17:00:45.806Z,7.68
2022-12-27T17:02:47.655Z,7.59
2022-12-27T17:04:49.377Z,6.94
2022-12-27T17:06:56.150Z,6.97
2022-12-27T17:09:09.847Z,7.22
2022-12-27T17:11:27.606Z,7.22
2022-12-27T17:13:53.523Z,7.45
2022-12-27T17:16:07.738Z,7.42
2022-12-27T17:18:23.933Z,7.50
2022-12-27T17:20:26.068Z,7.55
2022-12-27T17:22:34.532Z,7.55
2022-12-27T17:24:36.903Z,7.72
2022-12-27T17:27:00.903Z,7.59
2022-12-27T17:29:41.687Z,7.67
2022-12-27T17:32:00.131Z,7.17
2022-12-27T17:34:10.372Z,7.27
2022-12-27T17:36:25.354Z,7.64
2022-12-27T17:38:45.833Z,7.69
2022-12-27T17:40:59.519Z,7.34
2022-12-27T17:43:55.312Z,7.36
2022-12-27T17:46:07.352Z,7.87
2022-12-27T17:48:25.664Z,8.14
2022-12-27T17:50:28.186Z,8.36
2022-12-27T17:52:48.286Z,8.42
2022-12-27T17:55:08.528Z,7.97
2022-12-27T17:57:32.850Z,8.51
2022-12-27T17:59:34.906Z,8.66
2022-12-27T18:01:44.628Z,8.89
2022-12-27T18:03:48.413Z,8.76
2022-12-27T18:05:50.156Z,8.94
2022-12-27T18:08:01.005Z,9.36
2022-12-27T18:10:14.781Z,9.44
2022-12-27T18:12:24.384Z,9.26
2022-12-27T18:14:29.608Z,8.63
2022-12-27T18:16:39.210Z,8.66
2022-12-27T18:18:46.603Z,9.02
2022-12-27T18:20:59.559Z,9.27
2022-12-27T18:23:01.860Z,9.39
2022-12-27T18:25:24.175Z,8.78
2022-12-27T18:27:26.130Z,7.76
2022-12-27T18:29:28.170Z,8.17
2022-12-27T18:31:45.788Z,8.13
2022-12-27T18:33:54.155Z,8.53
2022-12-27T18:35:56.496Z,8.94
2022-12-27T18:37:58.170Z,9.50
2022-12-27T18:40:04.524Z,10.06
2022-12-27T18:42:17.577Z,9.71
2022-12-27T18:44:27.442Z,10.01
2022-12-27T18:46:37.365Z,9.11
2022-12-27T18:48:41.947Z,9.48
2022-12-27T18:50:51.298Z,9.03
2022-12-27T18:53:20.753Z,8.39
2022-12-27T18:55:27.932Z,8.02
2022-12-27T18:57:37.063Z,7.35
2022-12-27T18:59:39.004Z,6.97
2022-12-27T19:01:43.758Z,6.47
2022-12-27T19:04:19.268Z,6.08
2022-12-27T19:06:21.033Z,5.76
2022-12-27T19:08:25.328Z,5.48
2022-12-27T19:10:29.494Z,5.67
2022-12-27T19:12:36.690Z,5.34
2022-12-27T19:14:43.810Z,5.01
2022-12-27T19:16:52.672Z,4.90
2022-12-27T19:18:57.361Z,4.76
2022-12-27T19:21:01.959Z,4.44
2022-12-27T19:23:35.046Z,4.25
2022-12-27T19:25:39.529Z,4.27
2022-12-27T19:27:41.228Z,4.35
2022-12-27T19:29:51.935Z,4.35
2022-12-27T19:31:59.830Z,4.39
2022-12-27T19:34:16.916Z,4.39
2022-12-27T19:36:26.873Z,4.46
2022-12-27T19:38:31.730Z,4.38
2022-12-27T19:40:33.569Z,4.37
2022-12-27T19:42:35.299Z,4.36
2022-12-27T19:44:37.129Z,4.21
2022-12-27T19:46:38.860Z,4.17
2022-12-27T19:48:40.997Z,4.31
2022-12-27T19:50:54.349Z,4.21
2022-12-27T19:52:56.422Z,4.28
2022-12-27T19:55:04.359Z,4.27
2022-12-27T19:57:06.155Z,4.24
2022-12-27T19:59:14.874Z,4.30
2022-12-27T20:01:16.642Z,4.26
2022-12-27T20:03:18.975Z,4.30
2022-12-27T20:06:11.256Z,4.28
2022-12-27T20:07:42.305Z,4.34
2022-12-27T20:09:43.916Z,4.37
2022-12-27T20:11:46.719Z,4.41
2022-12-27T20:13:48.560Z,4.38
2022-12-27T20:15:52.331Z,4.39
2022-12-27T20:17:54.272Z,4.46
2022-12-27T20:19:55.851Z,4.51
2022-12-27T20:21:57.786Z,4.49
2022-12-27T20:23:59.361Z,4.23
2022-12-27T20:26:01.128Z,4.20
2022-12-27T20:28:02.965Z,4.22
2022-12-27T20:30:05.210Z,4.20
2022-12-27T20:32:07.006Z,4.24
2022-12-27T20:34:10.850Z,4.03
2022-12-27T20:36:12.695Z,4.11
2022-12-27T20:38:14.759Z,3.90
2022-12-27T20:40:16.987Z,3.84
2022-12-27T20:42:18.988Z,3.71
2022-12-27T20:44:20.840Z,3.76
2022-12-27T20:46:22.903Z,3.72
2022-12-27T20:48:25.078Z,3.73
2022-12-27T20:50:26.783Z,3.73
2022-12-27T20:52:31.233Z,3.73
2022-12-27T20:54:33.687Z,3.76
2022-12-27T20:56:35.611Z,3.67
2022-12-27T20:58:37.139Z,3.62
2022-12-27T21:00:41.016Z,3.54
2022-12-27T21:02:42.854Z,3.54
2022-12-27T21:04:44.584Z,3.49
2022-12-27T21:06:46.298Z,3.41
2022-12-27T21:08:56.311Z,3.38
2022-12-27T21:11:12.168Z,3.66
2022-12-27T21:13:13.716Z,3.19
2022-12-27T21:15:15.496Z,3.22
2022-12-27T21:17:17.384Z,3.14
2022-12-27T21:19:19.917Z,3.12
2022-12-27T21:21:27.420Z,3.08
2022-12-27T21:23:34.629Z,3.03
2022-12-27T21:25:36.521Z,2.92
2022-12-27T21:27:38.208Z,2.82
2022-12-27T21:29:39.905Z,2.84
2022-12-27T21:31:41.621Z,2.60
2022-12-27T21:33:43.181Z,2.64
2022-12-27T21:35:53.937Z,2.55
2022-12-27T21:37:55.545Z,2.43
2022-12-27T21:39:57.132Z,2.41
2022-12-27T21:41:58.857Z,2.42
2022-12-27T21:44:01.211Z,2.42
2022-12-27T21:46:08.195Z,2.28
2022-12-27T21:48:10.019Z,2.17
2022-12-27T21:50:11.651Z,2.14
2022-12-27T21:52:13.257Z,2.10
2022-12-27T21:54:16.137Z,2.00
2022-12-27T21:56:18.076Z,2.01
2022-12-27T21:58:19.691Z,2.00
2022-12-27T22:00:21.397Z,1.88
2022-12-27T22:02:23.039Z,2.00
2022-12-27T22:04:24.727Z,1.89
2022-12-27T22:06:31.706Z,1.89
2022-12-27T22:08:33.234Z,1.84
2022-12-27T22:10:34.846Z,1.84
2022-12-27T22:12:36.415Z,1.82
2022-12-27T22:14:38.135Z,1.81
2022-12-27T22:16:39.881Z,1.84
2022-12-27T22:18:42.752Z,1.86
2022-12-27T22:20:47.061Z,1.83
2022-12-27T22:22:48.872Z,1.77
2022-12-27T22:24:50.536Z,1.76
2022-12-27T22:26:52.214Z,1.72
2022-12-27T22:28:54.163Z,1.74
2022-12-27T22:30:56.526Z,1.64
2022-12-27T22:32:58.189Z,1.63
2022-12-27T22:34:59.828Z,1.65
2022-12-27T22:37:01.487Z,1.63
2022-12-27T22:39:03.745Z,1.60
2022-12-27T22:41:05.506Z,1.54
2022-12-27T22:43:07.031Z,1.56
2022-12-27T22:45:09.363Z,1.56
2022-12-27T22:47:27.913Z,1.60
2022-12-27T22:49:29.627Z,1.54
2022-12-27T22:51:33.431Z,1.52
2022-12-27T22:53:35.226Z,1.57
2022-12-27T22:55:40.511Z,1.55
2022-12-27T22:57:42.056Z,1.44
2022-12-27T22:59:43.828Z,1.41
2022-12-27T23:01:46.687Z,1.45
2022-12-27T23:03:48.973Z,1.40
2022-12-27T23:06:00.434Z,1.39
2022-12-27T23:08:05.117Z,1.40
2022-12-27T23:10:09.729Z,1.40
2022-12-27T23:12:12.510Z,1.40
2022-12-27T23:14:15.127Z,1.39
2022-12-27T23:16:16.945Z,1.43
2022-12-27T23:18:18.554Z,1.46
2022-12-27T23:20:20.355Z,1.50
2022-12-27T23:22:21.963Z,1.48
2022-12-27T23:24:23.602Z,1.48
2022-12-27T23:26:25.159Z,1.55
2022-12-27T23:28:26.970Z,1.63
2022-12-27T23:30:28.647Z,1.57
2022-12-27T23:32:30.523Z,1.66
2022-12-27T23:34:32.174Z,1.54
2022-12-27T23:36:34.115Z,1.43
2022-12-27T23:38:36.106Z,1.53
2022-12-27T23:40:37.685Z,1.60
2022-12-27T23:42:39.287Z,1.61
2022-12-27T23:44:41.471Z,1.64
2022-12-27T23:46:43.150Z,1.73
2022-12-27T23:48:45.336Z,1.86
2022-12-27T23:50:48.011Z,1.93
2022-12-27T23:52:49.677Z,2.04
2022-12-27T23:54:51.225Z,2.06
2022-12-27T23:56:52.931Z,2.11
2022-12-27T23:58:57.090Z,2.20
